Impacts TAF Board
For situational awareness. Not to be used for flight planning purposes.
IDs:

KSLC - Salt Lake City Intl, UT, US

Issued at 2036 UTC 21 Sep 2021
Updated at 2242 UTC 21 Sep 2021
Potential Impact None Slight Moderate High
Time2154Z 21/23Z 22/00Z 22/01Z 22/02Z 22/03Z 22/04Z 22/05Z 22/06Z 22/07Z 22/08Z 22/09Z 22/10Z 22/11Z>>
Type OBS PRVL PRVL PRVL PRVL PRVL PRVL PRVL PRVL PRVL PRVL PRVL PRVL PRVL
VIS 10 >6 >6 >6 >6 >6 >6 >6 >6 >6 >6 >6 >6 >6
CIG -- -- -- -- -- -- -- -- -- -- -- -- -- --
Cover CLR SKC SKC SKC SKC SKC SKC SKC SKC SKC SKC SKC SKC SKC
FltCat VFR VFR VFR VFR VFR VFR VFR VFR VFR VFR VFR VFR VFR VFR
WX -- -- -- -- -- -- -- -- -- -- -- -- -- --
WDir 360 330 330 330 330 330 150 150 150 150 150 150 150 150
WSpd 7 6 6 6 6 6 7 7 7 7 7 7 7 7
WGst -- -- -- -- -- -- -- -- -- -- -- -- -- --
Raw TAF
KSLC 212036Z 2121/2224 33006KT P6SM SKC
  FM220400 15007KT P6SM SKC
  FM221800 33008KT P6SM FEW200


Raw METAR
KSLC 212154Z 36007KT 320V090 10SM CLR 22/M06 A3042 RMK AO2 SLP269 T02171056
KSLC 212054Z 00000KT 10SM CLR 22/M07 A3044 RMK AO2 SLP276 T02221072 58019
KSLC 211954Z 00000KT 10SM CLR 21/M06 A3046 RMK AO2 SLP287 T02061061

METAR Board
Radar Display
Forecast Discussion
For situational awareness. Not to be used for flight planning purposes.